createdAt,value
2022-08-26T00:01:53.160Z,50.94
2022-08-26T00:04:22.127Z,49.67
2022-08-26T00:06:48.907Z,49.90
2022-08-26T00:09:15.933Z,49.59
2022-08-26T00:11:44.317Z,49.88
2022-08-26T00:14:12.253Z,49.10
2022-08-26T00:16:40.964Z,50.35
2022-08-26T00:19:14.079Z,51.18
2022-08-26T00:21:41.511Z,52.71
2022-08-26T00:24:08.219Z,51.82
2022-08-26T00:26:35.035Z,52.32
2022-08-26T00:29:01.861Z,51.88
2022-08-26T00:31:31.176Z,50.18
2022-08-26T00:33:58.352Z,50.60
2022-08-26T00:36:25.132Z,49.40
2022-08-26T00:38:57.964Z,48.95
2022-08-26T00:41:24.683Z,49.03
2022-08-26T00:43:53.156Z,49.12
2022-08-26T00:46:29.100Z,49.72
2022-08-26T00:49:12.610Z,51.19
2022-08-26T00:51:54.355Z,52.75
2022-08-26T00:54:27.234Z,52.05
2022-08-26T00:57:16.007Z,55.19
2022-08-26T00:59:48.302Z,52.54
2022-08-26T01:02:20.754Z,52.35
2022-08-26T01:05:01.440Z,51.53
2022-08-26T01:07:32.885Z,51.18
2022-08-26T01:10:09.416Z,52.47
2022-08-26T01:12:52.762Z,51.17
2022-08-26T01:15:25.615Z,51.09
2022-08-26T01:17:52.530Z,50.99
2022-08-26T01:20:40.116Z,51.81
2022-08-26T01:23:10.444Z,53.20
2022-08-26T01:25:43.034Z,51.81
2022-08-26T01:28:26.505Z,51.36
2022-08-26T01:30:54.920Z,51.63
2022-08-26T01:33:42.472Z,52.75
2022-08-26T01:36:11.034Z,52.01
2022-08-26T01:41:16.130Z,52.01
2022-08-26T01:43:52.835Z,51.90
2022-08-26T01:46:22.678Z,54.22
2022-08-26T01:48:54.550Z,53.16
2022-08-26T01:51:25.124Z,53.83
2022-08-26T01:53:52.256Z,53.94
2022-08-26T01:56:23.291Z,53.63
2022-08-26T01:58:57.737Z,57.00
2022-08-26T02:01:29.098Z,55.21
2022-08-26T02:04:08.680Z,53.00
2022-08-26T02:06:37.771Z,52.17
2022-08-26T02:09:06.047Z,51.56
2022-08-26T02:11:35.122Z,51.65
2022-08-26T02:14:28.173Z,54.67
2022-08-26T02:16:56.041Z,55.19
2022-08-26T02:19:30.666Z,55.05
2022-08-26T02:22:03.537Z,55.90
2022-08-26T02:25:14.281Z,56.37
2022-08-26T02:27:41.168Z,53.58
2022-08-26T02:30:22.145Z,55.57
2022-08-26T02:32:49.821Z,55.76
2022-08-26T02:35:20.357Z,54.57
2022-08-26T02:37:49.547Z,56.61
2022-08-26T02:40:21.678Z,55.09
2022-08-26T02:42:48.742Z,58.29
2022-08-26T02:45:16.328Z,56.21
2022-08-26T02:47:51.895Z,54.48
2022-08-26T02:50:19.577Z,54.19
2022-08-26T02:52:46.393Z,53.11
2022-08-26T02:55:13.325Z,52.51
2022-08-26T02:57:40.278Z,52.50
2022-08-26T03:00:11.026Z,53.85
2022-08-26T03:02:37.783Z,55.65
2022-08-26T03:05:05.038Z,55.77
2022-08-26T03:07:31.789Z,55.78
2022-08-26T03:09:58.675Z,56.61
2022-08-26T03:12:25.575Z,55.30
2022-08-26T03:14:53.086Z,54.66
2022-08-26T03:17:19.895Z,55.24
2022-08-26T03:19:46.853Z,56.58
2022-08-26T03:22:14.881Z,58.35
2022-08-26T03:24:46.039Z,56.54
2022-08-26T03:27:13.635Z,54.89
2022-08-26T03:30:00.080Z,56.14
2022-08-26T03:32:27.178Z,55.00
2022-08-26T03:34:54.683Z,57.55
2022-08-26T03:37:21.681Z,56.98
2022-08-26T03:39:49.418Z,54.25
2022-08-26T03:42:16.769Z,55.70
2022-08-26T03:44:43.833Z,55.73
2022-08-26T03:47:11.824Z,54.57
2022-08-26T03:49:38.605Z,57.50
2022-08-26T03:52:06.849Z,55.38
2022-08-26T03:54:34.117Z,56.90
2022-08-26T03:57:00.803Z,57.19
2022-08-26T03:59:28.004Z,56.14
2022-08-26T04:01:55.340Z,55.36
2022-08-26T04:04:24.423Z,54.96
2022-08-26T04:06:58.472Z,54.08
2022-08-26T04:09:27.405Z,54.04
2022-08-26T04:11:57.340Z,54.43
2022-08-26T04:14:27.002Z,56.07
2022-08-26T04:16:56.864Z,57.76
2022-08-26T04:19:26.068Z,59.87
2022-08-26T04:21:54.176Z,57.87
2022-08-26T04:24:24.842Z,57.16
2022-08-26T04:26:51.946Z,58.58
2022-08-26T04:29:24.026Z,57.67
2022-08-26T04:31:55.223Z,58.67
2022-08-26T04:34:28.820Z,57.26
2022-08-26T04:36:57.745Z,57.52
2022-08-26T04:39:25.312Z,57.87
2022-08-26T04:41:55.079Z,61.46
2022-08-26T04:44:24.289Z,61.90
2022-08-26T04:46:51.887Z,61.40
2022-08-26T04:49:18.947Z,60.11
2022-08-26T04:51:45.944Z,61.02
2022-08-26T04:54:14.192Z,60.24
2022-08-26T04:56:46.428Z,58.33
2022-08-26T04:59:18.059Z,57.34
2022-08-26T05:01:50.254Z,58.73
2022-08-26T05:04:20.140Z,56.69
2022-08-26T05:06:48.332Z,55.44
2022-08-26T05:09:15.840Z,57.61
2022-08-26T05:11:43.189Z,57.70
2022-08-26T05:14:10.068Z,56.97
2022-08-26T05:16:37.723Z,58.66
2022-08-26T05:19:08.562Z,55.66
2022-08-26T05:21:38.606Z,53.13
2022-08-26T05:24:06.106Z,53.01
2022-08-26T05:26:33.026Z,52.52
2022-08-26T05:29:01.421Z,51.77
2022-08-26T05:31:32.962Z,50.70
2022-08-26T05:34:03.757Z,51.02
2022-08-26T05:36:33.488Z,50.95
2022-08-26T05:39:04.323Z,50.48
2022-08-26T05:41:36.544Z,50.56
2022-08-26T05:44:08.533Z,51.02
2022-08-26T05:46:37.040Z,51.62
2022-08-26T05:49:05.866Z,54.10
2022-08-26T05:51:33.583Z,54.98
2022-08-26T05:54:03.596Z,51.84
2022-08-26T05:56:30.684Z,51.20
2022-08-26T05:59:02.284Z,52.98
2022-08-26T06:01:30.166Z,52.28
2022-08-26T06:04:01.570Z,50.51
2022-08-26T06:06:34.895Z,49.42
2022-08-26T06:09:05.581Z,49.26
2022-08-26T06:11:33.328Z,50.90
2022-08-26T06:14:05.354Z,49.07
2022-08-26T06:16:40.979Z,48.30
2022-08-26T06:19:10.391Z,47.83
2022-08-26T06:21:41.246Z,47.67
2022-08-26T06:24:30.315Z,47.12
2022-08-26T06:27:04.655Z,47.15
2022-08-26T06:29:36.073Z,47.98
2022-08-26T06:32:04.558Z,50.18
2022-08-26T06:34:31.502Z,49.97
2022-08-26T06:37:02.698Z,51.55
2022-08-26T06:39:31.415Z,50.85
2022-08-26T06:42:00.109Z,48.09
2022-08-26T06:44:27.688Z,48.48
2022-08-26T06:46:55.282Z,49.79
2022-08-26T06:49:26.516Z,51.11
2022-08-26T06:51:58.450Z,50.01
2022-08-26T06:54:26.642Z,48.23
2022-08-26T06:56:53.852Z,47.50
2022-08-26T06:59:21.759Z,49.43
2022-08-26T07:01:49.653Z,49.14
2022-08-26T07:04:21.815Z,50.28
2022-08-26T07:06:52.378Z,50.96
2022-08-26T07:09:21.196Z,50.14
2022-08-26T07:11:48.173Z,48.67
2022-08-26T07:14:16.802Z,46.62
2022-08-26T07:16:47.373Z,48.98
2022-08-26T07:19:14.256Z,47.19
2022-08-26T07:21:42.227Z,46.92
2022-08-26T07:24:11.294Z,47.27
2022-08-26T07:26:42.958Z,46.10
2022-08-26T07:29:12.422Z,46.90
2022-08-26T07:31:42.434Z,44.93
2022-08-26T07:34:10.990Z,45.71
2022-08-26T07:36:38.061Z,45.39
2022-08-26T07:39:06.660Z,45.09
2022-08-26T07:41:33.712Z,43.50
2022-08-26T07:44:00.889Z,42.98
2022-08-26T07:46:30.251Z,42.50
2022-08-26T07:48:58.676Z,41.86
2022-08-26T07:51:27.088Z,40.29
2022-08-26T07:53:54.928Z,40.20
2022-08-26T07:56:23.141Z,41.29
2022-08-26T07:58:52.400Z,39.36
2022-08-26T08:01:23.497Z,39.77
2022-08-26T08:03:51.755Z,42.45
2022-08-26T08:06:27.255Z,41.91
2022-08-26T08:08:55.473Z,42.36
2022-08-26T08:11:24.239Z,41.63
2022-08-26T08:13:56.607Z,43.10
2022-08-26T08:16:32.378Z,42.66
2022-08-26T08:19:01.352Z,41.66
2022-08-26T08:21:30.661Z,40.65
2022-08-26T08:23:57.930Z,40.90
2022-08-26T08:26:26.103Z,41.28
2022-08-26T08:28:57.636Z,42.02
2022-08-26T08:34:19.745Z,41.29
2022-08-26T08:36:48.865Z,39.67
2022-08-26T08:39:17.420Z,40.74
2022-08-26T08:42:12.063Z,42.23
2022-08-26T08:44:52.123Z,40.34
2022-08-26T08:47:34.277Z,43.46
2022-08-26T08:50:35.627Z,42.58
2022-08-26T08:53:17.425Z,42.33
2022-08-26T08:56:04.879Z,43.39
2022-08-26T08:58:51.678Z,42.32
2022-08-26T09:01:52.569Z,41.61
2022-08-26T09:04:35.981Z,41.08
2022-08-26T09:07:06.977Z,40.69
2022-08-26T09:10:01.745Z,39.76
2022-08-26T09:12:34.267Z,41.71
2022-08-26T09:15:27.465Z,39.40
2022-08-26T09:18:30.256Z,40.63
2022-08-26T09:21:07.714Z,39.13
2022-08-26T09:23:41.694Z,40.39
2022-08-26T09:26:40.920Z,41.80
2022-08-26T09:29:22.547Z,42.03
2022-08-26T09:31:49.789Z,40.78
2022-08-26T09:34:26.032Z,40.32
2022-08-26T09:36:53.839Z,40.96
2022-08-26T09:39:39.495Z,40.80
2022-08-26T09:42:21.025Z,41.54
2022-08-26T09:45:08.398Z,42.78
2022-08-26T09:47:45.382Z,44.56
2022-08-26T09:50:40.959Z,42.90
2022-08-26T09:53:30.416Z,43.83
2022-08-26T09:56:28.306Z,42.99
2022-08-26T09:58:56.708Z,42.81
2022-08-26T10:01:23.318Z,44.31
2022-08-26T10:03:51.276Z,45.56
2022-08-26T10:06:18.068Z,44.53
2022-08-26T10:09:02.744Z,43.66
2022-08-26T10:11:53.045Z,45.00
2022-08-26T10:15:02.216Z,41.46
2022-08-26T10:17:42.920Z,43.48
2022-08-26T10:20:23.205Z,41.58
2022-08-26T10:23:19.359Z,42.54
2022-08-26T10:26:05.686Z,42.81
2022-08-26T10:28:39.581Z,41.93
2022-08-26T10:31:27.692Z,46.12
2022-08-26T10:33:58.857Z,46.80
2022-08-26T10:37:13.922Z,44.42
2022-08-26T10:40:29.390Z,47.89
2022-08-26T10:43:45.046Z,48.36
2022-08-26T10:46:20.660Z,48.17
2022-08-26T10:49:08.270Z,47.13
2022-08-26T10:51:50.485Z,47.74
2022-08-26T10:55:03.429Z,51.49
2022-08-26T10:58:26.495Z,52.41
2022-08-26T11:01:40.985Z,52.14
2022-08-26T11:04:22.432Z,52.11
2022-08-26T11:07:10.011Z,51.98
2022-08-26T11:09:47.787Z,51.79
2022-08-26T11:12:34.668Z,52.84
2022-08-26T11:15:05.206Z,50.34
2022-08-26T11:17:44.284Z,49.36
2022-08-26T11:20:23.919Z,49.66
2022-08-26T11:22:53.621Z,51.45
2022-08-26T11:25:29.718Z,48.73
2022-08-26T11:28:00.961Z,51.10
2022-08-26T11:30:41.470Z,51.09
2022-08-26T11:33:09.080Z,51.40
2022-08-26T11:35:47.321Z,51.92
2022-08-26T11:38:29.712Z,49.47
2022-08-26T11:41:11.978Z,49.60
2022-08-26T11:43:40.570Z,49.35
2022-08-26T11:46:11.380Z,49.35
2022-08-26T11:48:43.963Z,50.72
2022-08-26T11:51:22.356Z,48.97
2022-08-26T11:53:49.731Z,48.26
2022-08-26T11:56:31.795Z,48.60
2022-08-26T11:59:03.125Z,48.32
2022-08-26T12:01:37.890Z,49.21
2022-08-26T12:04:08.330Z,49.37
2022-08-26T12:06:47.793Z,53.95
2022-08-26T12:09:25.906Z,61.99
2022-08-26T12:12:08.740Z,62.70
2022-08-26T12:14:39.706Z,67.82
2022-08-26T12:17:19.326Z,66.19
2022-08-26T12:19:49.197Z,62.54
2022-08-26T12:22:28.059Z,61.22
2022-08-26T12:24:59.713Z,60.91
2022-08-26T12:27:31.477Z,62.63
2022-08-26T12:30:08.501Z,60.74
2022-08-26T12:32:57.388Z,60.48
2022-08-26T12:35:26.856Z,57.53
2022-08-26T12:37:55.259Z,54.46
2022-08-26T12:40:31.138Z,52.61
2022-08-26T12:43:01.869Z,51.17
2022-08-26T12:45:36.650Z,51.13
2022-08-26T12:48:24.463Z,52.12
2022-08-26T12:50:53.218Z,54.92
2022-08-26T12:53:28.446Z,56.01
2022-08-26T12:56:19.602Z,57.74
2022-08-26T12:59:23.863Z,53.73
2022-08-26T13:01:53.040Z,51.57
2022-08-26T13:04:43.934Z,51.74
2022-08-26T13:07:29.029Z,55.05
2022-08-26T13:09:58.771Z,51.96
2022-08-26T13:12:34.408Z,51.21
2022-08-26T13:15:03.074Z,50.49
2022-08-26T13:17:30.935Z,50.63
2022-08-26T13:20:03.497Z,50.00
2022-08-26T13:22:31.710Z,49.73
2022-08-26T13:24:58.483Z,50.73
2022-08-26T13:27:27.452Z,52.54
2022-08-26T13:29:57.056Z,57.43
2022-08-26T13:32:27.623Z,57.70
2022-08-26T13:34:56.484Z,59.21
2022-08-26T13:37:24.530Z,59.20
2022-08-26T13:40:04.862Z,58.19
2022-08-26T13:42:31.888Z,55.75
2022-08-26T13:44:59.716Z,54.01
2022-08-26T13:47:28.002Z,52.87
2022-08-26T13:49:56.267Z,53.24
2022-08-26T13:52:29.129Z,55.72
2022-08-26T13:54:57.227Z,57.43
2022-08-26T13:57:24.746Z,56.70
2022-08-26T13:59:53.906Z,54.84
2022-08-26T14:02:20.681Z,56.07
2022-08-26T14:04:47.423Z,56.58
2022-08-26T14:07:14.444Z,56.74
2022-08-26T14:09:41.190Z,56.58
2022-08-26T14:12:08.371Z,56.69
2022-08-26T14:14:35.110Z,57.82
2022-08-26T14:17:02.174Z,56.82
2022-08-26T14:19:30.474Z,55.65
2022-08-26T14:21:57.686Z,56.94
2022-08-26T14:24:24.447Z,56.81
2022-08-26T14:26:51.200Z,55.61
2022-08-26T14:29:18.065Z,55.35
2022-08-26T14:31:45.463Z,55.43
2022-08-26T14:34:13.838Z,54.58
2022-08-26T14:36:40.587Z,53.72
2022-08-26T14:39:11.822Z,54.91
2022-08-26T14:41:53.943Z,57.86
2022-08-26T14:44:26.849Z,58.07
2022-08-26T14:46:54.681Z,58.80
2022-08-26T14:49:23.689Z,58.29
2022-08-26T14:51:50.508Z,56.58
2022-08-26T14:54:19.760Z,55.94
2022-08-26T14:57:03.532Z,57.05
2022-08-26T14:59:37.439Z,54.94
2022-08-26T15:02:06.282Z,54.83
2022-08-26T15:04:33.975Z,54.80
2022-08-26T15:07:01.241Z,54.25
2022-08-26T15:09:31.026Z,53.05
2022-08-26T15:11:58.087Z,54.66
2022-08-26T15:14:26.065Z,55.21
2022-08-26T15:16:57.158Z,54.42
2022-08-26T15:19:27.293Z,54.87
2022-08-26T15:21:54.356Z,57.17
2022-08-26T15:24:25.848Z,57.36
2022-08-26T15:26:53.261Z,57.86
2022-08-26T15:29:20.971Z,57.49
2022-08-26T15:31:48.691Z,57.67
2022-08-26T15:34:16.952Z,58.07
2022-08-26T15:36:46.337Z,57.80
2022-08-26T15:39:14.472Z,57.70
2022-08-26T15:41:41.168Z,61.50
2022-08-26T15:44:11.945Z,59.78
2022-08-26T15:46:39.259Z,57.13
2022-08-26T15:49:07.121Z,54.83
2022-08-26T15:51:45.293Z,54.82
2022-08-26T15:54:13.918Z,55.21
2022-08-26T15:56:40.709Z,54.05
2022-08-26T15:59:08.252Z,53.18
2022-08-26T16:01:36.352Z,52.98
2022-08-26T16:04:06.922Z,53.99
2022-08-26T16:06:37.279Z,52.72
2022-08-26T16:09:06.283Z,53.59
2022-08-26T16:11:34.551Z,54.60
2022-08-26T16:14:01.522Z,58.46
2022-08-26T16:16:28.369Z,54.85
2022-08-26T16:18:55.145Z,53.55
2022-08-26T16:21:29.870Z,56.13
2022-08-26T16:23:57.614Z,53.60
2022-08-26T16:26:37.124Z,53.77
2022-08-26T16:29:10.111Z,52.82
2022-08-26T16:31:38.344Z,53.14
2022-08-26T16:34:07.427Z,53.29
2022-08-26T16:36:36.147Z,51.94
2022-08-26T16:39:05.313Z,52.50
2022-08-26T16:41:32.921Z,54.92
2022-08-26T16:44:00.066Z,59.54
2022-08-26T16:46:27.887Z,63.38
2022-08-26T16:48:56.840Z,62.33
2022-08-26T16:51:27.172Z,62.31
2022-08-26T16:53:56.318Z,60.45
2022-08-26T16:56:33.382Z,58.67
2022-08-26T16:59:02.403Z,66.09
2022-08-26T17:01:29.655Z,69.14
2022-08-26T17:03:57.123Z,65.13
2022-08-26T17:06:23.869Z,60.26
2022-08-26T17:08:50.646Z,57.56
2022-08-26T17:11:17.394Z,56.54
2022-08-26T17:13:44.237Z,56.60
2022-08-26T17:16:13.068Z,59.86
2022-08-26T17:18:39.945Z,59.05
2022-08-26T17:21:11.954Z,61.81
2022-08-26T17:23:40.973Z,67.95
2022-08-26T17:26:08.313Z,69.65
2022-08-26T17:28:35.626Z,64.31
2022-08-26T17:31:03.441Z,62.13
2022-08-26T17:33:30.622Z,60.65
2022-08-26T17:35:57.908Z,58.03
2022-08-26T17:38:27.722Z,57.46
2022-08-26T17:40:54.545Z,55.47
2022-08-26T17:43:21.367Z,55.70
2022-08-26T17:45:48.249Z,55.91
2022-08-26T17:48:15.584Z,55.87
2022-08-26T17:50:43.324Z,57.24
2022-08-26T17:53:18.738Z,55.40
2022-08-26T17:55:50.136Z,53.42
2022-08-26T17:58:20.606Z,54.25
2022-08-26T18:00:54.154Z,53.57
2022-08-26T18:03:21.017Z,57.01
2022-08-26T18:05:52.561Z,56.79
2022-08-26T18:08:20.369Z,56.44
2022-08-26T18:10:47.284Z,58.18
2022-08-26T18:13:14.888Z,58.04
2022-08-26T18:15:44.038Z,58.19
2022-08-26T18:18:12.436Z,61.94
2022-08-26T18:20:40.915Z,59.43
2022-08-26T18:23:08.103Z,65.53
2022-08-26T18:25:34.936Z,70.01
2022-08-26T18:28:01.660Z,65.00
2022-08-26T18:30:28.319Z,61.96
2022-08-26T18:32:55.012Z,67.00
2022-08-26T18:35:21.705Z,64.69
2022-08-26T18:37:48.735Z,63.81
2022-08-26T18:40:16.355Z,61.17
2022-08-26T18:42:43.944Z,60.43
2022-08-26T18:45:16.047Z,60.77
2022-08-26T18:47:43.686Z,69.91
2022-08-26T18:50:11.198Z,74.12
2022-08-26T18:52:38.714Z,76.40
2022-08-26T18:55:06.434Z,78.87
2022-08-26T18:57:33.454Z,78.60
2022-08-26T19:00:00.163Z,80.33
2022-08-26T19:02:27.068Z,82.64
2022-08-26T19:04:57.358Z,87.03
2022-08-26T19:07:24.419Z,88.37
2022-08-26T19:09:53.926Z,87.75
2022-08-26T19:12:21.256Z,85.40
2022-08-26T19:14:47.966Z,80.07
2022-08-26T19:17:14.716Z,74.65
2022-08-26T19:19:41.487Z,70.61
2022-08-26T19:22:08.223Z,71.36
2022-08-26T19:24:35.450Z,76.40
2022-08-26T19:27:03.539Z,70.67
2022-08-26T19:29:35.203Z,72.20
2022-08-26T19:32:03.968Z,65.83
2022-08-26T19:34:31.338Z,70.88
2022-08-26T19:36:58.635Z,68.73
2022-08-26T19:39:26.485Z,65.28
2022-08-26T19:41:53.776Z,62.64
2022-08-26T19:44:42.007Z,63.97
2022-08-26T19:47:10.656Z,66.43
2022-08-26T19:49:38.170Z,64.14
2022-08-26T19:52:06.097Z,65.86
2022-08-26T19:54:33.728Z,65.67
2022-08-26T19:57:00.658Z,61.32
2022-08-26T19:59:27.662Z,61.58
2022-08-26T20:02:01.348Z,59.91
2022-08-26T20:04:30.764Z,58.28
2022-08-26T20:07:00.503Z,57.73
2022-08-26T20:09:33.979Z,57.11
2022-08-26T20:12:02.829Z,57.10
2022-08-26T20:14:30.125Z,64.09
2022-08-26T20:16:57.401Z,63.57
2022-08-26T20:19:44.684Z,61.79
2022-08-26T20:22:12.217Z,60.21
2022-08-26T20:24:39.364Z,62.09
2022-08-26T20:27:08.025Z,59.87
2022-08-26T20:29:36.775Z,58.99
2022-08-26T20:32:06.837Z,62.02
2022-08-26T20:34:35.554Z,64.27
2022-08-26T20:37:03.153Z,61.78
2022-08-26T20:39:30.062Z,63.07
2022-08-26T20:41:58.151Z,72.88
2022-08-26T20:44:25.456Z,80.42
2022-08-26T20:46:52.410Z,86.22
2022-08-26T20:49:19.240Z,87.06
2022-08-26T20:51:51.400Z,91.03
2022-08-26T20:54:22.182Z,91.02
2022-08-26T20:56:52.991Z,86.34
2022-08-26T20:59:21.381Z,83.09
2022-08-26T21:01:49.130Z,79.52
2022-08-26T21:04:21.000Z,80.91
2022-08-26T21:06:52.255Z,86.41
2022-08-26T21:09:21.812Z,88.74
2022-08-26T21:11:49.991Z,77.50
2022-08-26T21:14:17.581Z,73.38
2022-08-26T21:16:46.138Z,76.69
2022-08-26T21:19:17.551Z,76.50
2022-08-26T21:21:46.150Z,77.26
2022-08-26T21:24:13.400Z,72.33
2022-08-26T21:26:40.425Z,66.42
2022-08-26T21:29:09.706Z,63.68
2022-08-26T21:31:40.966Z,63.63
2022-08-26T21:34:11.885Z,62.14
2022-08-26T21:36:38.624Z,63.13
2022-08-26T21:39:09.412Z,65.03
2022-08-26T21:41:38.879Z,62.33
2022-08-26T21:44:05.664Z,62.74
2022-08-26T21:46:34.902Z,62.95
2022-08-26T21:49:04.370Z,61.67
2022-08-26T21:51:34.654Z,61.19
2022-08-26T21:54:08.633Z,61.89
2022-08-26T21:56:41.416Z,62.18
2022-08-26T21:59:09.556Z,61.63
2022-08-26T22:01:37.681Z,61.16
2022-08-26T22:04:07.218Z,62.67
2022-08-26T22:06:40.113Z,59.31
2022-08-26T22:09:06.878Z,60.62
2022-08-26T22:11:33.669Z,60.51
2022-08-26T22:14:00.450Z,60.39
2022-08-26T22:16:28.683Z,58.98
2022-08-26T22:18:55.672Z,59.02
2022-08-26T22:21:26.884Z,59.43
2022-08-26T22:23:58.022Z,58.60
2022-08-26T22:26:29.550Z,58.26
2022-08-26T22:28:59.494Z,57.79
2022-08-26T22:31:37.043Z,57.31
2022-08-26T22:34:08.312Z,57.60
2022-08-26T22:36:42.667Z,56.78
2022-08-26T22:39:16.186Z,57.40
2022-08-26T22:41:45.002Z,56.38
2022-08-26T22:44:12.498Z,55.86
2022-08-26T22:46:41.197Z,55.45
2022-08-26T22:49:09.988Z,55.72
2022-08-26T22:51:36.935Z,55.77
2022-08-26T22:54:04.099Z,55.42
2022-08-26T22:56:30.841Z,55.27
2022-08-26T22:58:57.602Z,56.62
2022-08-26T23:01:24.419Z,56.70
2022-08-26T23:03:51.193Z,56.29
2022-08-26T23:06:17.933Z,55.77
2022-08-26T23:08:46.364Z,55.63
2022-08-26T23:11:14.982Z,55.23
2022-08-26T23:13:41.977Z,55.60
2022-08-26T23:16:11.967Z,55.51
2022-08-26T23:18:40.561Z,54.71
2022-08-26T23:21:07.759Z,55.03
2022-08-26T23:23:35.371Z,57.09
2022-08-26T23:26:05.911Z,59.53
2022-08-26T23:28:34.080Z,65.17
2022-08-26T23:31:00.903Z,65.03
2022-08-26T23:33:47.701Z,63.21
2022-08-26T23:36:18.164Z,61.67
2022-08-26T23:38:52.508Z,63.89
2022-08-26T23:41:22.504Z,67.26
2022-08-26T23:43:50.296Z,64.79
2022-08-26T23:46:18.339Z,64.91
2022-08-26T23:48:45.353Z,65.56
2022-08-26T23:51:30.523Z,71.90
2022-08-26T23:53:57.974Z,73.64
2022-08-26T23:56:26.736Z,74.24
2022-08-26T23:58:54.243Z,76.69
